createdAt,value
2023-02-05T00:01:55.239Z,103533.50
2023-02-05T00:04:22.198Z,103532.75
2023-02-05T00:06:49.372Z,103534.66
2023-02-05T00:09:16.306Z,103534.75
2023-02-05T00:11:43.209Z,103538.56
2023-02-05T00:14:10.778Z,103543.81
2023-02-05T00:16:37.900Z,103538.88
2023-02-05T00:19:04.817Z,103538.03
2023-02-05T00:21:31.804Z,103543.41
2023-02-05T00:23:58.731Z,103543.63
2023-02-05T00:26:25.636Z,103546.47
2023-02-05T00:28:54.238Z,103538.78
2023-02-05T00:31:23.181Z,103534.44
2023-02-05T00:33:52.584Z,103532.97
2023-02-05T00:36:21.541Z,103534.03
2023-02-05T00:38:49.076Z,103528.03
2023-02-05T00:41:16.936Z,103528.88
2023-02-05T00:43:44.453Z,103519.28
2023-02-05T00:46:13.130Z,103528.13
2023-02-05T00:48:41.324Z,103530.88
2023-02-05T00:51:10.269Z,103526.34
2023-02-05T00:53:37.500Z,103525.50
2023-02-05T00:56:04.655Z,103515.91
2023-02-05T00:58:32.051Z,103518.53
2023-02-05T01:00:59.026Z,103518.75
2023-02-05T01:03:27.327Z,103511.59
2023-02-05T01:05:54.255Z,103506.44
2023-02-05T01:08:21.300Z,103503.06
2023-02-05T01:10:50.760Z,103503.91
2023-02-05T01:13:19.204Z,103511.06
2023-02-05T01:15:46.929Z,103499.91
2023-02-05T01:18:13.972Z,103487.78
2023-02-05T01:20:42.471Z,103482.84
2023-02-05T01:23:11.159Z,103487.47
2023-02-05T01:25:38.690Z,103478.94
2023-02-05T01:28:06.820Z,103481.03
2023-02-05T01:30:34.931Z,103465.56
2023-02-05T01:33:03.899Z,103459.00
2023-02-05T01:35:31.929Z,103452.25
2023-02-05T01:37:59.350Z,103474.47
2023-02-05T01:40:26.566Z,103482.78
2023-02-05T01:42:53.512Z,103480.44
2023-02-05T01:45:23.613Z,103466.75
2023-02-05T01:47:54.462Z,103456.44
2023-02-05T01:50:45.387Z,103461.06
2023-02-05T01:53:19.999Z,103477.06
2023-02-05T01:56:00.911Z,103471.16
2023-02-05T01:58:32.901Z,103460.00
2023-02-05T02:00:59.963Z,103452.50
2023-02-05T02:03:28.557Z,103456.81
2023-02-05T02:05:56.166Z,103449.97
2023-02-05T02:08:23.286Z,103431.78
2023-02-05T02:10:52.979Z,103441.44
2023-02-05T02:13:22.416Z,103441.66
2023-02-05T02:15:50.370Z,103444.50
2023-02-05T02:18:27.816Z,103435.97
2023-02-05T02:21:23.222Z,103423.03
2023-02-05T02:24:17.968Z,103417.13
2023-02-05T02:27:21.777Z,103419.94
2023-02-05T02:30:04.543Z,103423.81
2023-02-05T02:33:01.605Z,103417.72
2023-02-05T02:35:40.646Z,103419.72
2023-02-05T02:38:54.033Z,103415.59
2023-02-05T02:41:40.600Z,103412.28
2023-02-05T02:44:15.950Z,103398.31
2023-02-05T02:46:52.430Z,103394.63
2023-02-05T02:49:37.132Z,103395.59
2023-02-05T02:52:08.159Z,103394.63
2023-02-05T02:54:37.286Z,103391.38
2023-02-05T02:57:08.404Z,103393.06
2023-02-05T02:59:38.527Z,103391.28
2023-02-05T03:02:09.875Z,103397.56
2023-02-05T03:04:41.051Z,103396.81
2023-02-05T03:07:19.524Z,103402.09
2023-02-05T03:10:01.788Z,103413.53
2023-02-05T03:12:29.721Z,103404.06
2023-02-05T03:14:57.291Z,103411.09
2023-02-05T03:17:26.743Z,103408.38
2023-02-05T03:20:06.826Z,103402.19
2023-02-05T03:22:34.275Z,103389.53
2023-02-05T03:25:03.068Z,103397.75
2023-02-05T03:27:31.432Z,103403.03
2023-02-05T03:30:00.975Z,103394.31
2023-02-05T03:33:08.469Z,103398.41
2023-02-05T03:35:49.645Z,103401.13
2023-02-05T03:38:49.874Z,103415.88
2023-02-05T03:42:12.860Z,103400.19
2023-02-05T03:45:03.273Z,103409.75
2023-02-05T03:48:17.329Z,103416.59
2023-02-05T03:51:16.165Z,103406.00
2023-02-05T03:53:58.086Z,103412.09
2023-02-05T03:56:50.241Z,103407.72
2023-02-05T03:59:18.957Z,103413.81
2023-02-05T04:01:46.989Z,103416.13
2023-02-05T04:04:15.221Z,103413.41
2023-02-05T04:06:42.748Z,103416.88
2023-02-05T04:09:11.303Z,103422.88
2023-02-05T04:11:39.265Z,103423.72
2023-02-05T04:14:06.289Z,103424.56
2023-02-05T04:16:33.982Z,103427.09
2023-02-05T04:19:01.434Z,103433.41
2023-02-05T04:21:29.460Z,103437.50
2023-02-05T04:23:56.975Z,103433.00
2023-02-05T04:26:24.637Z,103434.56
2023-02-05T04:29:00.544Z,103449.41
2023-02-05T04:31:29.509Z,103431.22
2023-02-05T04:33:57.218Z,103439.53
2023-02-05T04:36:24.744Z,103441.13
2023-02-05T04:38:51.896Z,103434.06
2023-02-05T04:41:21.215Z,103421.66
2023-02-05T04:43:48.200Z,103433.03
2023-02-05T04:46:15.083Z,103426.63
2023-02-05T04:48:41.994Z,103423.03
2023-02-05T04:51:13.827Z,103423.78
2023-02-05T04:53:41.600Z,103412.31
2023-02-05T04:56:15.531Z,103406.75
2023-02-05T04:58:43.644Z,103403.91
2023-02-05T05:01:22.786Z,103414.97
2023-02-05T05:03:50.830Z,103411.59
2023-02-05T05:06:20.308Z,103410.00
2023-02-05T05:08:47.258Z,103418.63
2023-02-05T05:11:18.666Z,103421.25
2023-02-05T05:13:46.459Z,103413.56
2023-02-05T05:16:13.695Z,103402.31
2023-02-05T05:18:41.031Z,103404.84
2023-02-05T05:21:08.592Z,103400.31
2023-02-05T05:23:37.468Z,103401.16
2023-02-05T05:26:07.801Z,103404.63
2023-02-05T05:28:35.740Z,103398.63
2023-02-05T05:31:17.229Z,103404.84
2023-02-05T05:33:44.109Z,103408.41
2023-02-05T05:36:11.179Z,103413.47
2023-02-05T05:38:38.457Z,103414.41
2023-02-05T05:41:24.151Z,103419.56
2023-02-05T05:43:55.098Z,103421.38
2023-02-05T05:46:26.080Z,103426.53
2023-02-05T05:48:58.783Z,103432.63
2023-02-05T05:51:27.997Z,103434.94
2023-02-05T05:53:55.789Z,103432.94
2023-02-05T05:56:23.297Z,103429.47
2023-02-05T05:58:50.753Z,103433.78
2023-02-05T06:01:20.479Z,103428.34
2023-02-05T06:03:47.711Z,103430.00
2023-02-05T06:06:14.639Z,103429.19
2023-02-05T06:08:41.680Z,103417.81
2023-02-05T06:11:08.876Z,103417.72
2023-02-05T06:13:35.812Z,103422.88
2023-02-05T06:16:03.728Z,103414.13
2023-02-05T06:18:31.096Z,103417.41
2023-02-05T06:20:58.139Z,103417.28
2023-02-05T06:23:25.008Z,103423.28
2023-02-05T06:25:52.083Z,103424.25
2023-02-05T06:28:19.547Z,103415.19
2023-02-05T06:30:46.691Z,103413.41
2023-02-05T06:33:13.832Z,103417.72
2023-02-05T06:35:42.219Z,103418.47
2023-02-05T06:38:09.675Z,103415.94
2023-02-05T06:40:37.010Z,103404.56
2023-02-05T06:43:04.260Z,103406.78
2023-02-05T06:45:31.185Z,103416.38
2023-02-05T06:47:58.962Z,103418.78
2023-02-05T06:50:26.120Z,103423.94
2023-02-05T06:52:53.226Z,103429.31
2023-02-05T06:55:20.445Z,103430.16
2023-02-05T06:57:47.743Z,103424.88
2023-02-05T07:00:15.987Z,103419.41
2023-02-05T07:02:43.185Z,103423.63
2023-02-05T07:05:10.370Z,103423.41
2023-02-05T07:07:37.344Z,103431.84
2023-02-05T07:10:05.021Z,103431.75
2023-02-05T07:12:32.047Z,103435.88
2023-02-05T07:14:59.186Z,103427.03
2023-02-05T07:17:26.455Z,103435.25
2023-02-05T07:19:53.506Z,103429.78
2023-02-05T07:22:20.628Z,103429.66
2023-02-05T07:24:47.535Z,103432.19
2023-02-05T07:27:14.531Z,103427.56
2023-02-05T07:29:41.864Z,103427.97
2023-02-05T07:32:08.914Z,103433.03
2023-02-05T07:34:35.995Z,103423.13
2023-02-05T07:37:03.002Z,103423.63
2023-02-05T07:39:30.072Z,103422.38
2023-02-05T07:41:57.012Z,103430.78
2023-02-05T07:44:35.390Z,103437.31
2023-02-05T07:47:02.321Z,103423.06
2023-02-05T07:49:29.276Z,103433.50
2023-02-05T07:51:56.160Z,103437.72
2023-02-05T07:54:24.533Z,103431.16
2023-02-05T07:56:51.399Z,103419.34
2023-02-05T07:59:18.366Z,103410.16
2023-02-05T08:01:45.508Z,103405.50
2023-02-05T08:04:12.623Z,103402.56
2023-02-05T08:06:39.702Z,103400.66
2023-02-05T08:09:06.645Z,103395.28
2023-02-05T08:11:33.764Z,103393.50
2023-02-05T08:14:01.280Z,103395.69
2023-02-05T08:16:28.322Z,103391.13
2023-02-05T08:18:55.252Z,103399.66
2023-02-05T08:21:22.206Z,103398.38
2023-02-05T08:23:50.010Z,103397.69
2023-02-05T08:26:18.910Z,103395.69
2023-02-05T08:28:46.539Z,103394.16
2023-02-05T08:31:18.471Z,103392.50
2023-02-05T08:33:48.232Z,103394.94
2023-02-05T08:36:15.949Z,103396.16
2023-02-05T08:38:44.189Z,103391.88
2023-02-05T08:41:15.408Z,103385.16
2023-02-05T08:43:49.289Z,103388.22
2023-02-05T08:46:22.016Z,103388.69
2023-02-05T08:48:50.745Z,103381.16
2023-02-05T08:51:20.338Z,103382.47
2023-02-05T08:53:47.972Z,103385.84
2023-02-05T08:56:16.014Z,103391.75
2023-02-05T08:58:44.240Z,103395.22
2023-02-05T09:01:17.220Z,103385.50
2023-02-05T09:03:46.421Z,103381.06
2023-02-05T09:06:17.427Z,103389.63
2023-02-05T09:08:45.321Z,103392.25
2023-02-05T09:11:13.684Z,103379.13
2023-02-05T09:13:41.793Z,103371.91
2023-02-05T09:16:11.177Z,103376.19
2023-02-05T09:18:38.280Z,103381.56
2023-02-05T09:21:10.668Z,103375.41
2023-02-05T09:23:38.397Z,103380.06
2023-02-05T09:26:07.173Z,103370.78
2023-02-05T09:28:34.435Z,103373.88
2023-02-05T09:31:12.372Z,103372.31
2023-02-05T09:33:39.809Z,103370.25
2023-02-05T09:36:14.530Z,103383.81
2023-02-05T09:38:41.693Z,103385.22
2023-02-05T09:41:18.042Z,103378.44
2023-02-05T09:44:14.115Z,103394.06
2023-02-05T09:47:03.112Z,103384.34
2023-02-05T09:49:56.409Z,103373.88
2023-02-05T09:52:47.625Z,103385.16
2023-02-05T09:55:34.114Z,103389.38
2023-02-05T09:58:07.006Z,103382.72
2023-02-05T10:00:46.452Z,103371.59
2023-02-05T10:03:43.253Z,103372.94
2023-02-05T10:06:10.898Z,103376.03
2023-02-05T10:08:58.900Z,103373.31
2023-02-05T10:11:36.585Z,103371.31
2023-02-05T10:14:27.142Z,103364.56
2023-02-05T10:17:08.575Z,103359.41
2023-02-05T10:20:07.746Z,103366.59
2023-02-05T10:22:51.641Z,103353.16
2023-02-05T10:25:54.230Z,103348.72
2023-02-05T10:28:54.099Z,103349.63
2023-02-05T10:32:15.118Z,103340.91
2023-02-05T10:35:24.568Z,103342.16
2023-02-05T10:37:57.593Z,103326.94
2023-02-05T10:40:32.022Z,103325.25
2023-02-05T10:43:27.600Z,103324.78
2023-02-05T10:45:56.635Z,103322.06
2023-02-05T10:48:54.876Z,103323.06
2023-02-05T10:51:32.263Z,103313.84
2023-02-05T10:54:00.816Z,103322.22
2023-02-05T10:56:27.853Z,103317.34
2023-02-05T10:59:04.491Z,103313.47
2023-02-05T11:01:38.687Z,103310.13
2023-02-05T11:04:15.805Z,103306.41
2023-02-05T11:06:48.454Z,103293.19
2023-02-05T11:09:25.893Z,103301.09
2023-02-05T11:11:59.384Z,103298.16
2023-02-05T11:14:42.097Z,103288.72
2023-02-05T11:17:24.512Z,103302.06
2023-02-05T11:19:59.584Z,103304.84
2023-02-05T11:22:41.741Z,103312.31
2023-02-05T11:25:26.500Z,103311.81
2023-02-05T11:28:03.958Z,103311.34
2023-02-05T11:30:50.479Z,103311.00
2023-02-05T11:33:31.281Z,103308.50
2023-02-05T11:36:05.649Z,103294.53
2023-02-05T11:38:52.205Z,103295.28
2023-02-05T11:41:49.670Z,103295.50
2023-02-05T11:44:19.418Z,103292.53
2023-02-05T11:46:46.858Z,103285.84
2023-02-05T11:49:31.925Z,103282.72
2023-02-05T11:51:59.695Z,103291.47
2023-02-05T11:54:32.890Z,103286.81
2023-02-05T11:57:20.112Z,103295.03
2023-02-05T12:00:08.907Z,103293.50
2023-02-05T12:02:38.717Z,103294.69
2023-02-05T12:05:18.334Z,103296.69
2023-02-05T12:07:58.408Z,103294.84
2023-02-05T12:11:00.880Z,103285.63
2023-02-05T12:14:06.120Z,103280.44
2023-02-05T12:16:48.148Z,103280.97
2023-02-05T12:19:56.721Z,103283.66
2023-02-05T12:23:15.128Z,103287.66
2023-02-05T12:26:06.648Z,103282.66
2023-02-05T12:29:01.586Z,103282.97
2023-02-05T12:31:36.834Z,103276.44
2023-02-05T12:34:10.049Z,103271.38
2023-02-05T12:37:02.329Z,103269.88
2023-02-05T12:39:54.586Z,103267.16
2023-02-05T12:42:31.097Z,103278.56
2023-02-05T12:45:28.288Z,103268.19
2023-02-05T12:48:04.415Z,103263.72
2023-02-05T12:50:57.781Z,103264.22
2023-02-05T12:53:59.249Z,103278.25
2023-02-05T12:57:16.134Z,103266.53
2023-02-05T13:00:07.172Z,103261.34
2023-02-05T13:02:53.424Z,103273.03
2023-02-05T13:05:48.892Z,103264.19
2023-02-05T13:08:48.033Z,103280.72
2023-02-05T13:11:25.780Z,103284.88
2023-02-05T13:14:06.562Z,103280.81
2023-02-05T13:16:47.731Z,103286.13
2023-02-05T13:19:41.160Z,103290.59
2023-02-05T13:22:41.848Z,103291.84
2023-02-05T13:25:45.052Z,103275.88
2023-02-05T13:28:42.569Z,103271.78
2023-02-05T13:31:27.346Z,103284.06
2023-02-05T13:34:01.540Z,103285.25
2023-02-05T13:37:01.091Z,103287.25
2023-02-05T13:40:15.713Z,103282.97
2023-02-05T13:43:04.824Z,103290.69
2023-02-05T13:45:59.393Z,103287.78
2023-02-05T13:49:00.237Z,103290.16
2023-02-05T13:51:47.507Z,103302.41
2023-02-05T13:54:53.501Z,103321.44
2023-02-05T13:58:21.399Z,103309.84
2023-02-05T14:01:21.409Z,103303.44
2023-02-05T14:04:22.091Z,103309.09
2023-02-05T14:07:09.697Z,103303.25
2023-02-05T14:09:44.196Z,103300.47
2023-02-05T14:12:22.231Z,103300.56
2023-02-05T14:15:17.361Z,103291.50
2023-02-05T14:17:44.342Z,103280.69
2023-02-05T14:20:45.418Z,103280.31
2023-02-05T14:23:49.161Z,103275.13
2023-02-05T14:26:36.876Z,103284.94
2023-02-05T14:29:12.917Z,103281.59
2023-02-05T14:31:48.959Z,103280.50
2023-02-05T14:34:47.856Z,103266.06
2023-02-05T14:37:30.855Z,103271.69
2023-02-05T14:39:58.848Z,103262.16
2023-02-05T14:42:29.643Z,103258.16
2023-02-05T14:44:58.046Z,103257.34
2023-02-05T14:47:30.149Z,103245.34
2023-02-05T14:50:09.825Z,103239.00
2023-02-05T14:52:47.925Z,103250.81
2023-02-05T14:55:14.828Z,103262.63
2023-02-05T14:57:51.635Z,103260.66
2023-02-05T15:00:30.625Z,103245.53
2023-02-05T15:03:12.554Z,103261.44
2023-02-05T15:05:46.150Z,103271.66
2023-02-05T15:08:34.271Z,103270.06
2023-02-05T15:11:51.152Z,103272.97
2023-02-05T15:14:35.523Z,103292.84
2023-02-05T15:17:05.585Z,103304.59
2023-02-05T15:19:46.686Z,103301.03
2023-02-05T15:22:37.550Z,103301.06
2023-02-05T15:25:14.438Z,103310.59
2023-02-05T15:27:55.864Z,103318.88
2023-02-05T15:30:28.439Z,103316.81
2023-02-05T15:33:04.166Z,103312.75
2023-02-05T15:35:33.743Z,103322.25
2023-02-05T15:38:43.288Z,103319.28
2023-02-05T15:41:12.996Z,103320.66
2023-02-05T15:43:40.104Z,103323.41
2023-02-05T15:46:12.068Z,103328.09
2023-02-05T15:48:40.844Z,103332.31
2023-02-05T15:51:35.802Z,103340.16
2023-02-05T15:54:05.513Z,103336.28
2023-02-05T15:56:41.995Z,103349.28
2023-02-05T15:59:16.485Z,103336.84
2023-02-05T16:02:00.969Z,103337.34
2023-02-05T16:04:35.328Z,103350.41
2023-02-05T16:07:03.598Z,103354.16
2023-02-05T16:09:34.973Z,103354.69
2023-02-05T16:12:12.931Z,103364.69
2023-02-05T16:14:40.170Z,103357.09
2023-02-05T16:17:19.853Z,103361.47
2023-02-05T16:20:07.183Z,103373.41
2023-02-05T16:22:45.680Z,103370.94
2023-02-05T16:25:44.587Z,103367.41
2023-02-05T16:28:24.811Z,103361.59
2023-02-05T16:30:55.779Z,103364.56
2023-02-05T16:34:02.150Z,103363.66
2023-02-05T16:36:37.756Z,103365.47
2023-02-05T16:39:16.680Z,103377.78
2023-02-05T16:41:45.200Z,103362.22
2023-02-05T16:44:30.809Z,103370.66
2023-02-05T16:47:15.573Z,103360.09
2023-02-05T16:49:46.077Z,103347.75
2023-02-05T16:52:35.588Z,103352.09
2023-02-05T16:55:26.198Z,103351.28
2023-02-05T16:57:55.236Z,103342.25
2023-02-05T17:00:27.572Z,103350.94
2023-02-05T17:03:08.090Z,103363.78
2023-02-05T17:05:36.999Z,103359.81
2023-02-05T17:08:09.029Z,103354.91
2023-02-05T17:10:54.931Z,103358.88
2023-02-05T17:13:48.906Z,103362.09
2023-02-05T17:16:31.985Z,103352.13
2023-02-05T17:19:22.844Z,103349.25
2023-02-05T17:22:15.540Z,103353.22
2023-02-05T17:24:47.350Z,103352.00
2023-02-05T17:27:28.679Z,103351.41
2023-02-05T17:29:58.736Z,103357.16
2023-02-05T17:32:27.150Z,103360.13
2023-02-05T17:34:54.230Z,103359.41
2023-02-05T17:37:21.384Z,103352.78
2023-02-05T17:39:49.772Z,103356.50
2023-02-05T17:42:25.723Z,103366.44
2023-02-05T17:44:53.654Z,103373.13
2023-02-05T17:47:20.661Z,103383.81
2023-02-05T17:49:47.819Z,103393.75
2023-02-05T17:52:17.775Z,103388.09
2023-02-05T17:54:47.679Z,103390.09
2023-02-05T17:57:21.000Z,103393.19
2023-02-05T17:59:48.829Z,103396.06
2023-02-05T18:02:16.705Z,103400.94
2023-02-05T18:04:45.161Z,103404.66
2023-02-05T18:07:32.505Z,103407.75
2023-02-05T18:09:59.601Z,103403.03
2023-02-05T18:12:27.417Z,103415.59
2023-02-05T18:14:54.903Z,103411.38
2023-02-05T18:17:21.920Z,103411.94
2023-02-05T18:19:48.926Z,103419.13
2023-02-05T18:22:15.964Z,103429.88
2023-02-05T18:24:43.044Z,103439.78
2023-02-05T18:27:11.940Z,103439.25
2023-02-05T18:29:40.011Z,103443.91
2023-02-05T18:32:07.660Z,103443.38
2023-02-05T18:34:34.737Z,103442.88
2023-02-05T18:37:01.756Z,103451.00
2023-02-05T18:39:29.491Z,103457.31
2023-02-05T18:41:57.551Z,103450.47
2023-02-05T18:44:26.455Z,103447.22
2023-02-05T18:46:54.159Z,103444.78
2023-02-05T18:49:21.180Z,103451.97
2023-02-05T18:51:48.139Z,103435.75
2023-02-05T18:54:15.130Z,103457.75
2023-02-05T18:56:42.198Z,103443.03
2023-02-05T18:59:13.765Z,103454.50
2023-02-05T19:01:41.645Z,103459.13
2023-02-05T19:04:14.745Z,103474.19
2023-02-05T19:06:45.379Z,103482.41
2023-02-05T19:09:12.480Z,103477.47
2023-02-05T19:11:44.129Z,103483.06
2023-02-05T19:14:13.924Z,103487.56
2023-02-05T19:16:42.227Z,103493.91
2023-02-05T19:19:12.536Z,103488.84
2023-02-05T19:21:40.578Z,103489.88
2023-02-05T19:24:10.578Z,103491.25
2023-02-05T19:26:40.092Z,103478.94
2023-02-05T19:29:12.799Z,103474.06
2023-02-05T19:31:40.434Z,103470.69
2023-02-05T19:34:08.109Z,103471.00
2023-02-05T19:36:36.208Z,103473.00
2023-02-05T19:39:07.468Z,103472.16
2023-02-05T19:41:36.423Z,103464.56
2023-02-05T19:44:07.707Z,103456.78
2023-02-05T19:46:48.980Z,103456.44
2023-02-05T19:49:20.254Z,103462.53
2023-02-05T19:51:50.826Z,103460.31
2023-02-05T19:54:20.583Z,103459.59
2023-02-05T19:56:48.894Z,103458.84
2023-02-05T19:59:16.689Z,103465.03
2023-02-05T20:01:45.254Z,103459.25
2023-02-05T20:04:19.107Z,103461.03
2023-02-05T20:06:47.213Z,103470.72
2023-02-05T20:09:16.531Z,103460.50
2023-02-05T20:11:47.759Z,103472.16
2023-02-05T20:14:17.126Z,103462.59
2023-02-05T20:16:45.136Z,103457.53
2023-02-05T20:19:14.674Z,103458.56
2023-02-05T20:21:42.820Z,103467.41
2023-02-05T20:24:10.321Z,103446.78
2023-02-05T20:26:38.133Z,103453.06
2023-02-05T20:29:24.172Z,103462.00
2023-02-05T20:31:52.951Z,103467.47
2023-02-05T20:34:26.324Z,103452.94
2023-02-05T20:36:57.309Z,103458.19
2023-02-05T20:39:28.785Z,103469.75
2023-02-05T20:41:58.394Z,103448.16
2023-02-05T20:44:27.597Z,103441.19
2023-02-05T20:46:55.083Z,103444.03
2023-02-05T20:49:22.783Z,103452.94
2023-02-05T20:51:49.811Z,103456.63
2023-02-05T20:54:17.301Z,103453.16
2023-02-05T20:56:44.559Z,103460.28
2023-02-05T20:59:12.731Z,103477.09
2023-02-05T21:01:40.657Z,103482.53
2023-02-05T21:04:09.858Z,103477.47
2023-02-05T21:06:40.106Z,103487.25
2023-02-05T21:09:09.288Z,103492.69
2023-02-05T21:11:37.829Z,103511.06
2023-02-05T21:14:06.067Z,103516.44
2023-02-05T21:16:35.220Z,103531.53
2023-02-05T21:19:05.524Z,103542.34
2023-02-05T21:21:36.039Z,103553.78
2023-02-05T21:24:07.545Z,103559.13
2023-02-05T21:26:38.242Z,103552.28
2023-02-05T21:29:10.137Z,103563.81
2023-02-05T21:31:43.912Z,103551.81
2023-02-05T21:34:29.189Z,103551.81
2023-02-05T21:36:57.910Z,103558.09
2023-02-05T21:39:25.460Z,103539.16
2023-02-05T21:41:53.295Z,103546.94
2023-02-05T21:44:20.391Z,103544.41
2023-02-05T21:46:47.562Z,103540.94
2023-02-05T21:49:14.980Z,103537.66
2023-02-05T21:51:42.401Z,103538.50
2023-02-05T21:54:10.781Z,103533.53
2023-02-05T21:56:41.643Z,103543.00
2023-02-05T21:59:11.056Z,103548.44
2023-02-05T22:01:38.680Z,103556.50
2023-02-05T22:04:12.161Z,103568.69
2023-02-05T22:06:39.881Z,103558.38
2023-02-05T22:09:09.911Z,103567.94
2023-02-05T22:11:39.458Z,103576.00
2023-02-05T22:14:07.560Z,103570.56
2023-02-05T22:16:36.132Z,103569.72
2023-02-05T22:19:04.565Z,103572.34
2023-02-05T22:21:38.476Z,103569.53
2023-02-05T22:24:06.996Z,103565.13
2023-02-05T22:26:38.086Z,103567.00
2023-02-05T22:29:07.454Z,103563.63
2023-02-05T22:31:35.300Z,103542.81
2023-02-05T22:34:03.949Z,103549.75
2023-02-05T22:36:33.657Z,103549.75
2023-02-05T22:39:01.213Z,103548.91
2023-02-05T22:41:47.848Z,103550.59
2023-02-05T22:44:14.890Z,103552.47
2023-02-05T22:46:43.873Z,103541.13
2023-02-05T22:49:15.530Z,103534.09
2023-02-05T22:51:43.411Z,103537.75
2023-02-05T22:54:13.942Z,103539.63
2023-02-05T22:56:40.947Z,103542.41
2023-02-05T22:59:08.744Z,103536.50
2023-02-05T23:01:40.265Z,103541.75
2023-02-05T23:04:09.295Z,103550.63
2023-02-05T23:06:40.744Z,103543.78
2023-02-05T23:09:16.610Z,103541.16
2023-02-05T23:11:44.302Z,103544.81
2023-02-05T23:14:13.724Z,103542.19
2023-02-05T23:16:44.941Z,103537.88
2023-02-05T23:19:18.711Z,103543.97
2023-02-05T23:21:47.045Z,103540.69
2023-02-05T23:24:14.788Z,103541.53
2023-02-05T23:26:46.065Z,103539.75
2023-02-05T23:29:15.437Z,103521.56
2023-02-05T23:31:43.054Z,103511.91
2023-02-05T23:34:10.346Z,103505.16
2023-02-05T23:36:37.576Z,103503.47
2023-02-05T23:39:05.050Z,103488.66
2023-02-05T23:41:39.406Z,103496.53
2023-02-05T23:44:18.717Z,103488.09
2023-02-05T23:46:48.238Z,103492.50
2023-02-05T23:49:16.284Z,103477.03
2023-02-05T23:51:43.174Z,103487.44
2023-02-05T23:54:11.907Z,103483.13
2023-02-05T23:56:39.102Z,103493.72
2023-02-05T23:59:07.008Z,103487.63
